Time;durP1;ratioP1;P1;durP2;ratioP2;P2;SDS_P1;SDS_P2;PMS_P1;PMS_P2;Temp;Humidity;BMP_temperature;BMP_pressure;BME280_temperature;BME280_humidity;BME280_pressure;Samples;Min_cycle;Max_cycle;Signal;HPM_P1;HPM_P2
2021/12/12 00:01:14;;;;;;;0.90;0.90;;;;;;;4.41;77.78;101638.00;5189007;28;20141;-86
2021/12/12 00:03:50;;;;;;;0.63;0.63;;;;;;;4.46;77.44;101638.06;5158016;28;20515;-87
2021/12/12 00:06:26;;;;;;;0.43;0.43;;;;;;;4.43;77.15;101640.59;5174354;28;20513;-88
2021/12/12 00:09:07;;;;;;;0.40;0.40;;;;;;;4.38;77.35;101640.53;5173587;28;20455;-88
2021/12/12 00:11:38;;;;;;;0.98;0.98;;;;;;;4.51;77.47;101635.47;5178332;28;20050;-87
2021/12/12 00:14:19;;;;;;;0.68;0.68;;;;;;;4.48;77.49;101644.13;5167360;28;20030;-86
2021/12/12 00:16:51;;;;;;;1.70;1.58;;;;;;;4.54;76.71;101643.31;5163246;28;20041;-87
2021/12/12 00:19:25;;;;;;;1.30;1.20;;;;;;;4.57;76.98;101643.38;5177015;28;20034;-88
2021/12/12 00:21:58;;;;;;;1.23;1.23;;;;;;;4.55;76.98;101645.94;5152449;28;20338;-87
2021/12/12 00:24:29;;;;;;;0.45;0.45;;;;;;;4.61;76.99;101654.69;5151468;28;20046;-88
2021/12/12 00:27:00;;;;;;;0.40;0.40;;;;;;;4.65;77.03;101652.16;5150317;28;20034;-87
2021/12/12 00:29:31;;;;;;;0.40;0.40;;;;;;;4.56;77.46;101654.63;5177845;28;20243;-87
2021/12/12 00:32:06;;;;;;;0.30;0.30;;;;;;;4.58;77.34;101645.13;5179753;28;20112;-87
2021/12/12 00:34:47;;;;;;;0.70;0.70;;;;;;;4.60;77.38;101643.41;5180794;28;20587;-85
2021/12/12 00:37:18;;;;;;;0.60;0.60;;;;;;;4.54;77.49;101649.41;5185643;28;20032;-87
2021/12/12 00:39:54;;;;;;;0.95;0.95;;;;;;;4.54;77.37;101648.53;5163220;28;20080;-87
2021/12/12 00:42:31;;;;;;;14.00;1.67;;;;;;;4.55;77.50;101658.06;5166266;28;20026;-87
2021/12/12 00:45:08;;;;;;;1.80;1.70;;;;;;;4.57;77.47;101653.78;5194502;28;20038;-87
2021/12/12 00:47:41;;;;;;;0.70;0.70;;;;;;;4.52;77.61;101647.63;5181221;28;20314;-87
2021/12/12 00:50:14;;;;;;;;;;;;;;;4.46;77.62;101647.56;5154909;28;20444;-86
2021/12/12 00:52:48;;;;;;;0.88;0.88;;;;;;;4.51;77.31;101645.88;5150107;28;19914;-86
2021/12/12 00:55:19;;;;;;;;;;;;;;;4.49;77.20;101635.47;5162497;28;20034;-86
2021/12/12 00:57:53;;;;;;;0.50;0.50;;;;;;;4.59;77.44;101635.59;5169612;28;19921;-87
2021/12/12 01:00:30;;;;;;;1.45;1.35;;;;;;;4.53;77.66;101632.06;5178499;28;20192;-86
2021/12/12 01:03:01;;;;;;;0.50;0.50;;;;;;;4.49;76.88;101627.66;5165709;28;20559;-86
2021/12/12 01:05:32;;;;;;;0.68;0.68;;;;;;;4.55;77.74;101619.09;5158233;28;20044;-86
2021/12/12 01:08:07;;;;;;;1.02;1.02;;;;;;;4.48;77.55;101618.13;5144162;28;20037;-87
2021/12/12 01:10:44;;;;;;;0.75;0.75;;;;;;;4.55;77.23;101619.94;5163659;28;20034;-86
2021/12/12 01:13:15;;;;;;;0.50;0.50;;;;;;;4.57;76.98;101614.78;5174445;28;20068;-87
2021/12/12 01:16:01;;;;;;;0.63;0.63;;;;;;;4.53;77.49;101615.59;5180185;28;20061;-87
2021/12/12 01:18:37;;;;;;;0.40;0.40;;;;;;;4.59;77.92;101609.59;5177216;28;20072;-86
2021/12/12 01:21:25;;;;;;;0.40;0.40;;;;;;;4.46;76.99;101612.06;5180934;28;20029;-87
2021/12/12 01:24:00;;;;;;;0.50;0.50;;;;;;;4.45;76.81;101620.72;5168409;28;20096;-86
2021/12/12 01:26:32;;;;;;;1.13;1.13;;;;;;;4.55;77.49;101617.34;5148953;28;20040;-86
2021/12/12 01:29:03;;;;;;;0.75;0.75;;;;;;;4.54;77.22;101613.03;5150078;28;20022;-87
2021/12/12 01:31:39;;;;;;;0.90;0.90;;;;;;;4.58;77.67;101608.75;5144699;28;20247;-88
2021/12/12 01:34:11;;;;;;;3.03;1.70;;;;;;;4.63;77.54;101614.84;5168550;28;20045;-86
2021/12/12 01:37:33;;;;;;;0.57;0.57;;;;;;;4.60;77.38;101613.94;5162090;28;20541;-87
2021/12/12 01:40:08;;;;;;;1.65;1.05;;;;;;;4.60;77.02;101616.53;5160812;28;20053;-87
2021/12/12 01:42:56;;;;;;;0.60;0.60;;;;;;;4.61;77.35;101613.09;5191444;28;20145;-86
2021/12/12 01:45:35;;;;;;;0.50;0.50;;;;;;;4.65;77.51;101614.84;5151295;28;20189;-86
2021/12/12 01:48:15;;;;;;;0.60;0.60;;;;;;;4.64;77.66;101608.81;5165375;28;20018;-88
2021/12/12 01:50:50;;;;;;;0.60;0.60;;;;;;;4.63;77.52;101609.66;5200187;28;20140;-87
2021/12/12 01:53:25;;;;;;;0.65;0.65;;;;;;;4.67;77.45;101611.41;5217435;28;20026;-87
2021/12/12 01:56:02;;;;;;;0.80;0.80;;;;;;;4.67;78.07;101611.41;5202906;28;20531;-87
2021/12/12 01:58:38;;;;;;;0.50;0.50;;;;;;;4.72;77.30;101609.75;5171643;28;20038;-86
2021/12/12 02:01:12;;;;;;;0.60;0.60;;;;;;;4.60;77.71;101600.94;5142948;28;20034;-87
2021/12/12 02:03:51;;;;;;;0.80;0.80;;;;;;;4.58;77.86;101603.53;5146838;28;20455;-87
2021/12/12 02:06:23;;;;;;;0.60;0.60;;;;;;;4.69;77.26;101599.31;5143655;28;20045;-87
2021/12/12 02:08:54;;;;;;;0.38;0.38;;;;;;;4.69;77.10;101585.47;5128554;28;20129;-86
2021/12/12 02:11:30;;;;;;;0.70;0.70;;;;;;;4.60;77.32;101591.41;5176682;28;20044;-88
2021/12/12 02:14:10;;;;;;;0.70;0.70;;;;;;;4.69;77.72;101583.72;5163951;28;20033;-87
2021/12/12 02:16:56;;;;;;;1.00;1.00;;;;;;;4.68;77.48;101594.97;5167573;28;20050;-86
2021/12/12 02:19:36;;;;;;;0.40;0.40;;;;;;;4.71;77.69;101592.41;5153166;28;20038;-87
2021/12/12 02:22:53;;;;;;;0.68;0.68;;;;;;;4.73;77.08;101592.44;5147914;28;20045;-86
2021/12/12 02:36:30;;;;;;;0.70;0.70;;;;;;;4.70;77.14;101577.66;5175757;28;20178;-87
2021/12/12 02:39:08;;;;;;;0.60;0.60;;;;;;;4.73;77.12;101588.13;5191034;28;20041;-87
2021/12/12 02:41:38;;;;;;;0.40;0.40;;;;;;;4.73;77.65;101587.22;5135859;28;23019;-87
2021/12/12 02:44:09;;;;;;;0.70;0.70;;;;;;;4.77;76.95;101583.81;5173420;28;20133;-87
2021/12/12 02:46:42;;;;;;;0.45;0.45;;;;;;;4.68;77.02;101581.97;5156022;28;20551;-87
2021/12/12 02:49:39;;;;;;;5.38;1.48;;;;;;;4.66;77.57;101583.69;5157005;28;20026;-87
2021/12/12 02:52:14;;;;;;;0.63;0.63;;;;;;;4.80;77.06;101582.97;5142674;28;20022;-87
2021/12/12 02:54:46;;;;;;;0.80;0.80;;;;;;;4.73;77.38;101585.50;5142161;28;20065;-86
2021/12/12 02:57:18;;;;;;;1.80;1.50;;;;;;;4.72;77.59;101578.56;5157513;28;20053;-87
2021/12/12 02:59:50;;;;;;;0.98;0.98;;;;;;;4.80;77.47;101585.56;5141602;28;20042;-87
2021/12/12 03:02:27;;;;;;;1.45;1.38;;;;;;;4.78;77.82;101580.38;5137019;28;20034;-87
2021/12/12 03:05:04;;;;;;;0.47;0.47;;;;;;;4.73;77.96;101582.91;5175568;28;20053;-87
2021/12/12 03:07:35;;;;;;;0.63;0.63;;;;;;;4.72;77.46;101583.75;5157170;28;20079;-87
2021/12/12 03:10:10;;;;;;;1.02;1.02;;;;;;;4.76;77.72;101579.47;5152100;28;20035;-87
2021/12/12 03:12:41;;;;;;;0.60;0.60;;;;;;;4.73;78.10;101577.72;5176932;28;20455;-87
2021/12/12 03:15:16;;;;;;;0.70;0.70;;;;;;;4.79;77.75;101578.63;5176214;28;20077;-86
2021/12/12 03:17:49;;;;;;;0.50;0.50;;;;;;;4.79;78.44;101574.31;5141193;28;20044;-86
2021/12/12 03:20:24;;;;;;;0.45;0.45;;;;;;;4.79;78.42;101570.81;5133866;28;20035;-86
2021/12/12 03:23:04;;;;;;;0.40;0.40;;;;;;;4.84;78.04;101579.53;5135327;28;20045;-86
2021/12/12 03:25:39;;;;;;;0.30;0.30;;;;;;;4.86;77.80;101575.22;5180285;28;20136;-86
2021/12/12 03:28:14;;;;;;;0.55;0.55;;;;;;;4.88;77.98;101573.53;5145361;28;20057;-87
2021/12/12 03:30:46;;;;;;;0.52;0.52;;;;;;;4.88;78.49;101571.78;5139463;28;20491;-87
2021/12/12 03:33:16;;;;;;;0.63;0.63;;;;;;;4.83;78.38;101572.63;5156262;28;20424;-87
2021/12/12 03:35:53;;;;;;;0.40;0.40;;;;;;;4.86;78.08;101575.22;5144036;28;20462;-86
2021/12/12 03:38:27;;;;;;;0.50;0.50;;;;;;;4.88;78.63;101570.91;5159899;28;20531;-86
2021/12/12 03:41:02;;;;;;;0.98;0.98;;;;;;;4.94;78.19;101570.97;5138223;28;20674;-86
2021/12/12 03:43:35;;;;;;;1.52;1.42;;;;;;;4.92;78.69;101577.03;5177041;28;20054;-86
2021/12/12 03:46:10;;;;;;;0.60;0.60;;;;;;;4.99;78.54;101578.81;5141764;28;20052;-86
2021/12/12 03:48:42;;;;;;;0.40;0.40;;;;;;;5.01;78.51;101584.91;5157690;28;20046;-86
2021/12/12 03:51:16;;;;;;;0.43;0.43;;;;;;;4.98;78.44;101580.56;5178210;28;20038;-87
2021/12/12 03:53:46;;;;;;;0.60;0.60;;;;;;;5.08;78.08;101583.25;5140804;28;20510;-86
2021/12/12 03:56:18;;;;;;;0.47;0.47;;;;;;;5.04;78.73;101575.41;5171651;28;20034;-87
2021/12/12 03:58:48;;;;;;;0.73;0.73;;;;;;;4.99;78.64;101577.13;5183763;28;20038;-87
2021/12/12 04:01:36;;;;;;;0.40;0.40;;;;;;;4.99;78.75;101574.50;5168240;28;20041;-87
2021/12/12 04:04:27;;;;;;;0.82;0.82;;;;;;;5.09;78.75;101577.16;5178582;28;20038;-87
2021/12/12 04:06:59;;;;;;;0.82;0.82;;;;;;;5.13;78.86;101584.16;5141314;28;20038;-87
2021/12/12 04:09:30;;;;;;;0.40;0.40;;;;;;;5.14;79.26;101583.31;5153823;28;20350;-87
2021/12/12 04:12:04;;;;;;;0.50;0.50;;;;;;;5.07;79.13;101578.91;5138531;28;20543;-87
2021/12/12 04:14:35;;;;;;;0.73;0.73;;;;;;;5.03;79.93;101573.66;5126994;28;20049;-87
2021/12/12 04:17:13;;;;;;;0.50;0.50;;;;;;;5.02;80.05;101576.25;5142525;28;20030;-87
2021/12/12 04:19:46;;;;;;;1.05;1.05;;;;;;;5.08;79.39;101581.53;5189275;28;20123;-88
2021/12/12 04:22:17;;;;;;;1.17;1.17;;;;;;;5.09;79.52;101580.66;5192096;28;20113;-87
2021/12/12 04:24:52;;;;;;;0.50;0.50;;;;;;;5.08;79.56;101576.31;5167302;28;20073;-87
2021/12/12 04:27:24;;;;;;;0.43;0.43;;;;;;;5.12;80.16;101580.72;5138408;28;20444;-87
2021/12/12 04:29:55;;;;;;;0.50;0.50;;;;;;;5.14;79.76;101583.31;5154537;28;20050;-87
2021/12/12 04:32:28;;;;;;;0.65;0.65;;;;;;;5.09;79.49;101584.97;5155059;28;20034;-87
2021/12/12 04:35:03;;;;;;;0.50;0.50;;;;;;;5.10;80.26;101577.22;5137375;28;20043;-87
2021/12/12 04:37:34;;;;;;;1.38;1.00;;;;;;;5.04;80.95;101570.22;5134843;28;20022;-87
2021/12/12 04:40:09;;;;;;;0.60;0.60;;;;;;;5.13;80.58;101579.81;5127796;28;20515;-87
2021/12/12 04:42:40;;;;;;;0.40;0.40;;;;;;;5.12;80.52;101577.22;5140208;28;20034;-87
2021/12/12 04:45:28;;;;;;;1.95;1.35;;;;;;;5.15;79.67;101579.84;5173618;28;20034;-87
2021/12/12 04:50:57;;;;;;;0.63;0.63;;;;;;;5.18;80.18;101569.47;5174989;28;20466;-87
2021/12/12 04:53:31;;;;;;;0.77;0.77;;;;;;;5.19;80.12;101571.22;5161214;28;20030;-87
2021/12/12 04:56:15;;;;;;;1.20;1.20;;;;;;;5.15;81.35;101569.44;5151863;28;20053;-87
2021/12/12 04:58:58;;;;;;;1.15;1.02;;;;;;;5.07;81.53;101561.56;5162359;28;20268;-87
2021/12/12 05:02:10;;;;;;;0.60;0.60;;;;;;;5.19;81.05;101560.78;5156253;28;20046;-87
2021/12/12 05:04:55;;;;;;;0.50;0.50;;;;;;;5.15;81.49;101565.09;5197065;28;20055;-87
2021/12/12 05:07:34;;;;;;;0.50;0.50;;;;;;;5.09;81.65;101561.56;5181381;28;20037;-87
2021/12/12 05:10:28;;;;;;;0.63;0.63;;;;;;;5.16;81.15;101560.78;5159365;28;20411;-87
2021/12/12 05:13:07;;;;;;;3.20;1.30;;;;;;;5.16;81.52;101558.19;5146004;28;20056;-87
2021/12/12 05:15:43;;;;;;;0.47;0.47;;;;;;;5.18;81.07;101556.44;5160352;28;20041;-87
2021/12/12 05:18:20;;;;;;;0.63;0.63;;;;;;;5.31;80.67;101555.72;5147891;28;20511;-87
2021/12/12 05:21:00;;;;;;;0.40;0.40;;;;;;;5.14;82.72;101552.09;5166758;28;20126;-87
2021/12/12 05:23:33;;;;;;;0.70;0.70;;;;;;;5.17;82.66;101553.00;5176569;28;20045;-87
2021/12/12 05:26:10;;;;;;;0.93;0.93;;;;;;;5.11;83.11;101558.16;5217230;28;20069;-87
2021/12/12 05:28:53;;;;;;;0.73;0.73;;;;;;;5.15;83.15;101552.09;5202822;28;20014;-86
2021/12/12 05:31:24;;;;;;;0.45;0.45;;;;;;;5.16;82.48;101550.38;5147464;28;20038;-87
2021/12/12 05:33:56;;;;;;;0.40;0.40;;;;;;;5.25;82.94;101555.63;5143126;28;20030;-87
2021/12/12 05:36:28;;;;;;;0.70;0.70;;;;;;;5.20;82.40;101558.22;5166477;28;20341;-87
2021/12/12 05:39:00;;;;;;;1.25;1.23;;;;;;;5.25;82.96;101562.59;5146708;28;20034;-87
2021/12/12 05:41:31;;;;;;;0.45;0.45;;;;;;;5.19;83.76;101568.59;5174186;28;20045;-87
2021/12/12 05:44:02;;;;;;;0.47;0.47;;;;;;;5.21;83.65;101564.28;5143400;28;20556;-86
2021/12/12 05:46:33;;;;;;;0.75;0.75;;;;;;;5.23;83.01;101573.00;5172712;28;20045;-87
2021/12/12 05:49:05;;;;;;;0.70;0.70;;;;;;;5.17;84.39;101572.91;5160929;28;20030;-86
2021/12/12 05:51:36;;;;;;;0.68;0.68;;;;;;;5.17;83.92;101573.81;5175866;28;20049;-87
2021/12/12 05:54:07;;;;;;;0.70;0.70;;;;;;;5.16;84.71;101568.59;5158108;28;20149;-85
2021/12/12 05:56:40;;;;;;;0.45;0.45;;;;;;;5.24;84.26;101572.13;5177664;28;20026;-87
2021/12/12 05:59:11;;;;;;;0.40;0.40;;;;;;;5.20;83.50;101572.94;5178192;28;20041;-87
2021/12/12 06:01:42;;;;;;;0.60;0.60;;;;;;;5.21;84.14;101572.09;5154980;28;20117;-87
2021/12/12 06:04:13;;;;;;;0.80;0.75;;;;;;;5.26;83.59;101575.59;5187511;28;20315;-86
2021/12/12 06:06:45;;;;;;;2.22;1.20;;;;;;;5.28;82.68;101565.22;5141927;28;20234;-87
2021/12/12 06:09:16;;;;;;;1.27;0.95;;;;;;;5.18;84.87;101561.66;5158554;28;20037;-86
2021/12/12 06:11:52;;;;;;;0.63;0.63;;;;;;;5.26;82.90;101562.59;5157064;28;20496;-87
2021/12/12 06:14:23;;;;;;;0.60;0.60;;;;;;;5.32;83.52;101564.38;5162516;28;20041;-87
2021/12/12 06:16:54;;;;;;;0.50;0.50;;;;;;;5.33;83.17;101564.38;5135749;28;20034;-87
2021/12/12 06:19:25;;;;;;;0.57;0.57;;;;;;;5.36;83.76;101568.75;5124500;28;20027;-87
2021/12/12 06:21:58;;;;;;;0.60;0.60;;;;;;;5.44;82.89;101582.72;5174668;28;20493;-87
2021/12/12 06:24:30;;;;;;;0.90;0.90;;;;;;;5.42;83.18;101583.53;5168550;28;20337;-87
2021/12/12 06:27:05;;;;;;;1.30;1.00;;;;;;;5.36;83.61;101584.38;5147477;28;20034;-87
2021/12/12 06:29:36;;;;;;;4.88;0.75;;;;;;;5.36;82.68;101587.84;5157146;28;20520;-87
2021/12/12 06:32:07;;;;;;;0.60;0.60;;;;;;;5.39;82.75;101584.38;5174827;28;20033;-87
2021/12/12 06:34:37;;;;;;;0.40;0.40;;;;;;;5.34;83.71;101584.34;5140565;28;20314;-87
2021/12/12 06:37:10;;;;;;;0.43;0.43;;;;;;;5.30;84.54;101582.59;5178387;28;20029;-87
2021/12/12 06:39:42;;;;;;;0.50;0.50;;;;;;;5.40;82.97;101585.28;5160622;28;20038;-87
2021/12/12 06:42:14;;;;;;;0.60;0.60;;;;;;;5.38;82.72;101586.97;5175873;28;20627;-87
2021/12/12 06:44:44;;;;;;;0.40;0.40;;;;;;;5.35;84.37;101588.69;5159916;28;20045;-87
2021/12/12 06:47:17;;;;;;;0.43;0.43;;;;;;;5.48;83.06;101587.06;5166592;28;20021;-87
2021/12/12 06:49:48;;;;;;;1.05;1.05;;;;;;;5.42;83.47;101592.22;5157495;28;20219;-87
2021/12/12 06:52:19;;;;;;;0.82;0.82;;;;;;;5.36;84.79;101587.84;5145551;28;20096;-87
2021/12/12 06:54:52;;;;;;;1.15;1.15;;;;;;;5.46;83.32;101593.13;5191354;28;20044;-87
2021/12/12 06:57:23;;;;;;;0.55;0.55;;;;;;;5.43;82.91;101591.38;5177257;28;20038;-86
2021/12/12 06:59:53;;;;;;;0.65;0.65;;;;;;;5.52;82.88;101593.16;5151152;28;20031;-86
2021/12/12 07:02:24;;;;;;;1.00;1.00;;;;;;;5.51;83.32;101588.81;5153199;28;20046;-86
2021/12/12 07:04:55;;;;;;;0.88;0.88;;;;;;;5.59;83.28;101581.94;5159233;28;20041;-87
2021/12/12 07:07:27;;;;;;;1.52;1.50;;;;;;;5.57;83.05;101586.28;5163766;28;20313;-87
2021/12/12 07:09:58;;;;;;;0.77;0.77;;;;;;;5.44;84.87;101582.72;5177174;28;20492;-87
2021/12/12 07:12:28;;;;;;;0.60;0.60;;;;;;;5.55;84.16;101585.41;5156451;28;20030;-88
2021/12/12 07:15:00;;;;;;;0.65;0.65;;;;;;;5.44;84.75;101581.81;5155323;28;20492;-87
2021/12/12 07:17:31;;;;;;;0.50;0.50;;;;;;;5.46;83.75;101586.19;5159068;28;20034;-87
2021/12/12 07:20:04;;;;;;;0.75;0.75;;;;;;;5.48;84.36;101586.22;5145268;28;20085;-87
2021/12/12 07:22:35;;;;;;;0.40;0.40;;;;;;;5.51;85.06;101579.28;5145126;28;20468;-88
2021/12/12 07:25:08;;;;;;;1.73;1.63;;;;;;;5.58;84.23;101574.97;5152489;28;20125;-87
2021/12/12 07:27:38;;;;;;;0.65;0.65;;;;;;;5.58;84.15;101590.59;5142529;28;20461;-86
2021/12/12 07:30:10;;;;;;;0.50;0.50;;;;;;;5.54;85.38;101575.84;5161390;28;20120;-87
2021/12/12 07:32:41;;;;;;;1.02;1.02;;;;;;;5.53;84.60;101574.09;5155693;28;20045;-86
2021/12/12 07:35:14;;;;;;;0.40;0.40;;;;;;;5.50;86.10;101571.44;5161851;28;20041;-85
2021/12/12 07:37:45;;;;;;;0.50;0.50;;;;;;;5.54;84.72;101573.22;5157844;28;20088;-85
2021/12/12 07:40:17;;;;;;;0.60;0.55;;;;;;;5.59;84.37;101581.06;5194707;28;20581;-85
2021/12/12 07:42:49;;;;;;;0.50;0.50;;;;;;;5.59;84.42;101583.69;5155829;28;20120;-86
2021/12/12 07:45:21;;;;;;;0.70;0.70;;;;;;;5.54;85.58;101588.84;5171433;28;20093;-85
2021/12/12 07:47:53;;;;;;;0.50;0.50;;;;;;;5.64;84.46;101582.88;5167228;28;20026;-87
2021/12/12 07:50:26;;;;;;;0.77;0.77;;;;;;;5.64;85.58;101595.00;5180665;28;20088;-87
2021/12/12 07:52:58;;;;;;;0.60;0.60;;;;;;;5.56;86.63;101594.94;5150950;28;20026;-88
2021/12/12 07:55:28;;;;;;;0.50;0.50;;;;;;;5.61;85.86;101587.19;5160162;28;20042;-86
2021/12/12 07:57:59;;;;;;;1.00;0.88;;;;;;;5.56;85.38;101587.13;5167603;28;20026;-87
2021/12/12 08:00:30;;;;;;;0.98;0.98;;;;;;;5.67;86.39;101595.88;5152960;28;20092;-85
2021/12/12 08:03:03;;;;;;;0.50;0.50;;;;;;;5.64;85.27;101602.81;5155418;28;20391;-87
2021/12/12 08:05:35;;;;;;;0.40;0.40;;;;;;;5.61;87.04;101601.06;5149761;28;20038;-89
2021/12/12 08:08:09;;;;;;;0.40;0.40;;;;;;;5.61;87.29;101601.06;5131255;28;20034;-88
2021/12/12 08:10:44;;;;;;;0.40;0.40;;;;;;;5.61;86.08;101603.66;5150034;28;20038;-86
2021/12/12 08:13:15;;;;;;;0.85;0.85;;;;;;;5.73;85.64;101609.81;5157850;28;20057;-85
2021/12/12 08:15:47;;;;;;;0.40;0.40;;;;;;;5.65;87.46;101602.84;5154982;28;20061;-84
2021/12/12 08:18:19;;;;;;;0.40;0.40;;;;;;;5.64;87.82;101608.91;5173472;28;20037;-83
2021/12/12 08:20:51;;;;;;;0.80;0.80;;;;;;;5.66;88.03;101604.56;5151184;28;20038;-84
2021/12/12 08:23:23;;;;;;;0.95;0.93;;;;;;;5.66;86.90;101611.50;5152805;28;20341;-83
2021/12/12 08:25:55;;;;;;;0.52;0.52;;;;;;;5.63;87.56;101614.97;5171207;28;20117;-84
2021/12/12 08:28:25;;;;;;;0.60;0.60;;;;;;;5.61;88.66;101614.06;5191093;28;20084;-84
2021/12/12 08:30:56;;;;;;;0.40;0.40;;;;;;;5.56;89.46;101609.69;5153461;28;20042;-82
2021/12/12 08:33:28;;;;;;;0.50;0.50;;;;;;;5.59;89.37;101620.13;5176168;28;20116;-83
2021/12/12 08:36:00;;;;;;;0.60;0.60;;;;;;;5.58;88.75;101629.66;5149478;28;20214;-84
2021/12/12 08:38:31;;;;;;;0.50;0.50;;;;;;;5.58;88.87;101623.59;5135016;28;20031;-83
2021/12/12 08:41:04;;;;;;;0.52;0.52;;;;;;;5.59;89.10;101628.81;5153721;28;20662;-83
2021/12/12 08:43:35;;;;;;;0.40;0.40;;;;;;;5.58;90.36;101626.19;5179047;28;20034;-83
2021/12/12 08:46:12;;;;;;;0.40;0.40;;;;;;;5.72;87.85;101628.91;5162593;28;20057;-83
2021/12/12 08:48:49;;;;;;;0.30;0.30;;;;;;;5.73;87.62;101634.13;5173942;28;20037;-85
2021/12/12 08:51:30;;;;;;;0.60;0.60;;;;;;;5.71;89.59;101629.78;5194372;28;20030;-83
2021/12/12 08:54:14;;;;;;;0.40;0.40;;;;;;;5.79;88.43;101631.56;5179744;28;20543;-83
2021/12/12 08:56:48;;;;;;;0.75;0.75;;;;;;;5.74;89.58;101632.41;5168552;28;20034;-84
2021/12/12 08:59:24;;;;;;;0.45;0.45;;;;;;;5.68;90.01;101639.28;5202722;28;20022;-84
2021/12/12 09:02:02;;;;;;;0.47;0.47;;;;;;;5.73;88.95;101651.50;5182687;28;20022;-84
2021/12/12 09:04:38;;;;;;;0.50;0.50;;;;;;;5.75;88.41;101647.16;5184464;28;20029;-85
2021/12/12 09:07:15;;;;;;;0.95;0.95;;;;;;;5.81;88.23;101653.28;5151239;28;20173;-85
2021/12/12 09:09:55;;;;;;;1.17;1.17;;;;;;;5.83;88.59;101653.28;5141286;28;20035;-85
2021/12/12 09:12:32;;;;;;;0.50;0.50;;;;;;;5.83;88.07;101651.56;5136435;28;20519;-84
2021/12/12 09:15:12;;;;;;;1.05;1.05;;;;;;;5.90;88.49;101655.09;5141354;28;20050;-84
2021/12/12 09:17:46;;;;;;;0.40;0.40;;;;;;;5.91;88.87;101659.41;5139020;28;20038;-83
2021/12/12 09:20:24;;;;;;;0.40;0.40;;;;;;;5.88;88.85;101650.72;5146847;28;20404;-84
2021/12/12 09:23:09;;;;;;;0.68;0.68;;;;;;;5.94;89.62;101653.38;5162268;28;20026;-83
2021/12/12 09:25:52;;;;;;;0.40;0.40;;;;;;;5.90;89.99;101644.69;5155716;28;20045;-82
2021/12/12 09:28:32;;;;;;;0.70;0.70;;;;;;;5.92;90.06;101642.06;5178249;28;20035;-82
2021/12/12 09:31:07;;;;;;;4.32;1.17;;;;;;;5.93;90.50;101644.69;5182864;28;20054;-83
2021/12/12 09:33:45;;;;;;;0.45;0.45;;;;;;;5.95;90.80;101642.13;5159514;28;20030;-83
2021/12/12 09:36:27;;;;;;;0.40;0.40;;;;;;;5.98;91.35;101647.31;5174155;28;20045;-84
2021/12/12 09:39:36;;;;;;;0.40;0.40;;;;;;;6.06;91.14;101642.22;5166411;28;20026;-84
2021/12/12 09:42:37;;;;;;;0.47;0.47;;;;;;;6.12;91.01;101642.25;5142699;28;20551;-84
2021/12/12 09:45:16;;;;;;;0.60;0.60;;;;;;;6.08;90.47;101645.66;5165760;28;20296;-85
2021/12/12 09:51:31;;;;;;;0.40;0.40;;;;;;;6.14;91.83;101646.59;5204310;28;20058;-84
2021/12/12 09:54:36;;;;;;;0.70;0.70;;;;;;;6.17;91.26;101645.72;5170757;28;20306;-85
2021/12/12 09:57:15;;;;;;;0.40;0.40;;;;;;;6.23;91.53;101643.19;5104796;28;20176;-84
2021/12/12 09:59:58;;;;;;;0.40;0.40;;;;;;;6.33;91.18;101644.09;5147407;28;20039;-85
2021/12/12 10:03:13;;;;;;;0.60;0.60;;;;;;;6.30;91.68;101650.19;5281850;27;20708;-82
2021/12/12 10:06:02;;;;;;;0.32;0.32;;;;;;;6.32;91.23;101646.72;5245697;28;20048;-82
2021/12/12 10:08:41;;;;;;;0.40;0.40;;;;;;;6.36;91.51;101648.44;5233263;28;20071;-82
2021/12/12 10:11:51;;;;;;;0.40;0.40;;;;;;;6.39;91.72;101649.34;5240046;28;20398;-82
2021/12/12 10:14:47;;;;;;;0.40;0.40;;;;;;;6.43;91.39;101650.22;5212485;28;20119;-81
2021/12/12 10:17:23;;;;;;;3.63;1.20;;;;;;;6.49;91.09;101639.81;5239422;28;20021;-82
2021/12/12 10:20:09;;;;;;;0.75;0.75;;;;;;;6.50;91.68;101653.75;5211612;28;20369;-81
2021/12/12 10:22:53;;;;;;;0.40;0.40;;;;;;;6.50;91.23;101657.22;5192796;28;20209;-81
2021/12/12 10:25:33;;;;;;;0.40;0.40;;;;;;;6.55;91.73;101645.09;5217717;28;20160;-82
2021/12/12 10:28:07;;;;;;;0.45;0.45;;;;;;;6.60;91.55;101648.56;5223118;28;20068;-81
2021/12/12 10:30:58;;;;;;;0.40;0.40;;;;;;;6.61;91.60;101644.25;5207539;28;20073;-81
2021/12/12 10:33:48;;;;;;;0.40;0.40;;;;;;;6.67;91.58;101648.59;5213176;28;20037;-81
2021/12/12 10:36:23;;;;;;;0.50;0.50;;;;;;;6.69;92.19;101646.88;5189464;28;20045;-82
2021/12/12 10:38:58;;;;;;;0.40;0.40;;;;;;;6.70;91.99;101652.06;5231345;28;20029;-82
2021/12/12 10:41:43;;;;;;;0.85;0.85;;;;;;;6.72;91.99;101645.13;5224114;28;20666;-82
2021/12/12 10:44:16;;;;;;;0.40;0.40;;;;;;;6.80;91.59;101645.19;5237182;28;20028;-81
2021/12/12 10:46:47;;;;;;;0.40;0.40;;;;;;;6.87;91.72;101646.94;5210413;28;20067;-82
2021/12/12 10:49:35;;;;;;;0.50;0.50;;;;;;;6.81;92.59;101652.16;5230294;28;20033;-83
2021/12/12 10:52:10;;;;;;;0.40;0.40;;;;;;;6.83;92.69;101653.00;5221428;28;20025;-82
2021/12/12 10:54:58;;;;;;;0.70;0.70;;;;;;;6.88;92.62;101650.41;5213600;28;20041;-82
2021/12/12 10:57:33;;;;;;;0.47;0.47;;;;;;;6.89;93.24;101660.88;5227437;28;20400;-83
2021/12/12 11:00:17;;;;;;;0.40;0.40;;;;;;;6.91;93.56;101653.91;5231289;28;20133;-83
2021/12/12 11:03:03;;;;;;;0.65;0.65;;;;;;;6.92;93.49;101654.78;5215965;28;20060;-83
2021/12/12 11:05:41;;;;;;;0.85;0.75;;;;;;;6.91;93.70;101653.03;5235194;28;20059;-80
2021/12/12 11:08:11;;;;;;;0.50;0.50;;;;;;;6.97;93.76;101650.44;5252415;28;20056;-80
2021/12/12 11:10:47;;;;;;;0.40;0.40;;;;;;;6.98;94.28;101654.78;5237492;28;20071;-80
2021/12/12 11:13:26;;;;;;;0.40;0.40;;;;;;;7.05;93.93;101659.16;5223167;28;20060;-81
2021/12/12 11:16:05;;;;;;;0.40;0.40;;;;;;;7.02;94.16;101655.66;5197667;28;20394;-81
2021/12/12 11:18:50;;;;;;;0.40;0.40;;;;;;;7.03;94.40;101660.03;5193703;28;20037;-80
2021/12/12 11:21:30;;;;;;;1.27;0.88;;;;;;;7.11;94.19;101660.91;5193986;28;20041;-81
2021/12/12 11:24:09;;;;;;;0.50;0.50;;;;;;;7.18;94.12;101659.19;5210696;28;20048;-83
2021/12/12 11:26:54;;;;;;;0.40;0.40;;;;;;;7.17;93.79;101660.94;5200908;28;20033;-81
2021/12/12 11:29:53;;;;;;;0.30;0.30;;;;;;;7.22;94.80;101663.53;5184389;28;20036;-80
2021/12/12 11:32:34;;;;;;;0.30;0.30;;;;;;;7.22;94.43;101667.03;5193332;28;20377;-80
2021/12/12 11:35:08;;;;;;;0.40;0.40;;;;;;;7.23;94.35;101660.94;5195314;28;20038;-82
2021/12/12 11:37:41;;;;;;;0.82;0.82;;;;;;;7.34;93.85;101667.91;5196418;28;20028;-83
2021/12/12 11:40:20;;;;;;;0.57;0.57;;;;;;;7.29;93.71;101664.44;5203594;28;20734;-82
2021/12/12 11:43:06;;;;;;;0.40;0.40;;;;;;;7.32;94.05;101662.69;5186526;28;20025;-82
2021/12/12 11:45:41;;;;;;;0.60;0.60;;;;;;;7.36;94.25;101668.78;5185291;28;20088;-82
2021/12/12 11:48:35;;;;;;;0.50;0.50;;;;;;;7.35;94.39;101669.66;5186606;28;20060;-82
2021/12/12 11:51:22;;;;;;;0.50;0.50;;;;;;;7.36;93.99;101677.47;5208298;28;20038;-83
2021/12/12 11:54:00;;;;;;;0.40;0.40;;;;;;;7.38;94.18;101672.28;5166909;28;20144;-83
2021/12/12 11:56:45;;;;;;;0.82;0.82;;;;;;;7.38;94.30;101659.22;5209431;28;20056;-82
2021/12/12 11:59:22;;;;;;;0.40;0.40;;;;;;;7.44;93.90;101658.38;5165387;28;20025;-82
2021/12/12 12:02:18;;;;;;;0.45;0.45;;;;;;;7.43;94.00;101657.47;5201807;28;20037;-82
2021/12/12 12:04:57;;;;;;;0.50;0.50;;;;;;;7.50;93.80;101669.69;5195048;28;20164;-82
2021/12/12 12:07:49;;;;;;;0.70;0.70;;;;;;;7.51;93.42;101667.94;5191174;28;20034;-82
2021/12/12 12:10:32;;;;;;;0.40;0.40;;;;;;;7.50;94.10;101667.06;5186379;28;20420;-82
2021/12/12 12:13:05;;;;;;;0.63;0.63;;;;;;;7.54;93.77;101662.72;5213525;28;20135;-82
2021/12/12 12:15:53;;;;;;;0.52;0.52;;;;;;;7.57;93.51;101668.81;5216042;28;20271;-83
2021/12/12 12:18:26;;;;;;;1.23;1.15;;;;;;;7.59;93.75;101668.81;5213413;28;20035;-83
2021/12/12 12:20:58;;;;;;;;;;;;;;;7.61;94.15;101661.84;5195342;28;20046;-81
2021/12/12 12:26:51;;;;;;;0.70;0.70;;;;;;;7.67;94.73;101660.97;5220263;28;20041;-82
2021/12/12 12:29:27;;;;;;;0.40;0.40;;;;;;;7.68;94.26;101676.66;5214332;28;20048;-83
2021/12/12 12:32:04;;;;;;;0.30;0.30;;;;;;;7.69;94.89;101674.91;5205390;28;20021;-81
2021/12/12 12:34:50;;;;;;;0.50;0.50;;;;;;;7.67;95.30;101674.03;5193403;28;20043;-81
2021/12/12 12:37:58;;;;;;;0.82;0.82;;;;;;;7.65;95.31;101667.94;5220273;28;20172;-83
2021/12/12 12:40:37;;;;;;;0.50;0.50;;;;;;;7.66;95.79;101672.28;5189343;28;20072;-83